Port Star — 3EAS6 — position and weather

sailwx.info

Track history (hours):
 
Tides and Currents Weather Stations Pressure Air Temp Water Temp Dewpoint Dewpoint Depression Visibility Wind Speed Wind Dir Waves Ship Positions

Port Star

Last reported at 2016-Jul-15 08:17 UTC. Time now 2016-Aug-29 18:07 UTC.
Position N 30°50' E 032°19'.
Warning: this ship's position is 45 days out of date.

Length 175.5 m; beam 29.4 m.

Type: Ship. MMSI: 356105000.

Date/timePositionNaut miles runAvg speedWind from/ knotsBaromVisibWave heightAir tempDewpointWater temp
2016-Jul-15 08:17N 30°50' E 032°19'10 8.8
2016-Jul-15 07:10N 30°59' E 032°19'6 9.7
2016-Jul-15 06:31N 31°06' E 032°18'10 3.4
2016-Jul-15 03:28N 31°16' E 032°19'0 0.0
2016-Jul-14 22:13N 31°16' E 032°19'0 0.0
2016-Jul-14 21:10N 31°16' E 032°19'0 0.0
2016-Jul-14 19:25N 31°16' E 032°19'0 0.0
2016-Jul-14 12:23N 31°16' E 032°19'0 0.3
2016-Jul-14 11:32N 31°16' E 032°19'5 5.3
2016-Jul-14 10:33N 31°21' E 032°21'4 0.4
2016-Jul-14 01:08N 31°23' E 032°18'1710.0
2016-Jul-13 23:27N 31°37' E 032°07'1111.8
2016-Jul-13 22:32N 31°44' E 031°58'1412.1
2016-Jul-13 21:25N 31°49' E 031°43'1112.7
2016-Jul-13 20:33N 31°52' E 031°31'1212.4
2016-Jul-13 19:33N 31°56' E 031°17'1612.2
2016-Jul-13 18:13N 31°60' E 030°58'5 7.2
2016-Jul-13 17:30N 32°04' E 030°55'9 7.2
2016-Jul-13 16:18N 32°10' E 030°48'9 9.7
2016-Jul-13 15:20N 32°08' E 030°38'2011.4
2016-Jul-13 13:33N 32°19' E 030°17'1612.4
2016-Jul-13 12:17N 32°20' E 029°59'1012.5
2016-Jul-13 11:30N 32°20' E 029°47'1112.1
2016-Jul-13 10:33N 32°23' E 029°34'1812.4
2016-Jul-13 09:08N 32°29' E 029°14'812.6
2016-Jul-13 08:30N 32°30' E 029°05'2812.4
2016-Jul-13 06:13N 32°40' E 028°34'913.0
2016-Jul-13 05:30N 32°43' E 028°23'60513.1
2016-Jul-11 07:25N 35°47' E 016°46'1213.3
2016-Jul-11 06:33N 35°50' E 016°33'2713.3
2016-Jul-11 04:33N 35°58' E 016°01'1313.1
2016-Jul-11 03:33N 36°02' E 015°46'1413.2
2016-Jul-11 02:30N 36°06' E 015°30'1313.3
2016-Jul-11 01:32N 36°10' E 015°14'1313.2
2016-Jul-11 00:33N 36°14' E 014°59'1313.3
2016-Jul-10 23:33N 36°18' E 014°43'1413.5
2016-Jul-10 22:33N 36°22' E 014°27'1413.6
2016-Jul-10 21:33N 36°27' E 014°11'1313.4
2016-Jul-10 20:33N 36°31' E 013°55'1313.3
2016-Jul-10 19:33N 36°35' E 013°40'1313.3
2016-Jul-10 18:33N 36°39' E 013°24'1413.6
2016-Jul-10 17:33N 36°43' E 013°08'1413.5
2016-Jul-10 16:33N 36°47' E 012°52'1313.3
2016-Jul-10 15:34N 36°51' E 012°36'1313.1
2016-Jul-10 14:33N 36°55' E 012°20'1413.2
2016-Jul-10 13:30N 36°59' E 012°03'1313.2
2016-Jul-10 12:33N 37°05' E 011°49'1313.5
2016-Jul-10 11:33N 37°11' E 011°35'1413.5
2016-Jul-10 10:33N 37°18' E 011°20'1313.0
2016-Jul-10 09:33N 37°24' E 011°06'1313.1
2016-Jul-10 08:32N 37°29' E 010°50'4113.2
2016-Jul-10 05:25N 37°34' E 009°58'1213.7
2016-Jul-10 04:33N 37°31' E 009°44'1413.6
2016-Jul-10 03:33N 37°27' E 009°28'1413.7
2016-Jul-10 02:32N 37°23' E 009°11'28112.8
2016-Jul-09 04:32N 37°05' E 003°19'1312.9
2016-Jul-09 03:33N 37°03' E 003°03'1312.9
2016-Jul-09 02:33N 37°01' E 002°47'1313.4
2016-Jul-09 01:32N 36°58' E 002°31'1313.4
2016-Jul-09 00:33N 36°56' E 002°14'1313.2
2016-Jul-08 23:32N 36°54' E 001°58'1312.9
2016-Jul-08 22:31N 36°52' E 001°42'1212.8
2016-Jul-08 21:33N 36°49' E 001°26'1312.4
2016-Jul-08 20:30N 36°48' E 001°10'1212.5
2016-Jul-08 19:33N 36°46' E 000°56'1312.9
2016-Jul-08 18:33N 36°44' E 000°40'1212.1
2016-Jul-08 17:33N 36°42' E 000°25'1312.2
2016-Jul-08 16:32N 36°40' E 000°09'1212.6
2016-Jul-08 15:33N 36°38' W 000°06'1313.4
2016-Jul-08 14:33N 36°36' W 000°22'1512.8
2016-Jul-08 13:23N 36°34' W 000°41'22412.6
2016-Jul-07 19:33N 36°05' W 005°16'5 5.0
2016-Jul-07 18:32N 36°08' W 005°22'0 0.0
2016-Jul-07 17:29N 36°08' W 005°22'0 0.0
2016-Jul-07 16:32N 36°08' W 005°22'0 0.1
2016-Jul-07 15:32N 36°07' W 005°22'0 0.2
2016-Jul-07 14:32N 36°08' W 005°22'0 0.0
2016-Jul-07 13:29N 36°08' W 005°22'0 0.0
2016-Jul-07 12:32N 36°08' W 005°22'0 0.0
2016-Jul-07 11:32N 36°08' W 005°22'0 0.0
2016-Jul-07 10:32N 36°08' W 005°22'0 0.2
2016-Jul-07 09:32N 36°08' W 005°22'1 1.0
2016-Jul-07 08:33N 36°07' W 005°22'7 6.7
2016-Jul-07 07:33N 36°00' W 005°20'1010.2
2016-Jul-07 06:34N 35°57' W 005°32'1413.7
2016-Jul-07 05:32N 35°54' W 005°49'23211.1
2016-Jul-06 08:32N 37°60' W 009°54'1312.8
2016-Jul-06 07:33N 38°12' W 009°58'1312.9
2016-Jul-06 06:31N 38°25' W 010°01'1212.5
2016-Jul-06 05:33N 38°37' W 010°06'1312.8
2016-Jul-06 04:31N 38°50' W 010°06'2912.5
2016-Jul-06 02:09N 39°19' W 010°06'1012.9
2016-Jul-06 01:21N 39°30' W 010°06'  
Track history (hours):
 
Tides and Currents Weather Stations Pressure Air Temp Water Temp Dewpoint Dewpoint Depression Visibility Wind Speed Wind Dir Waves Ship Positions

Port Star

Last reported at 2016-Jul-15 08:17 UTC. Time now 2016-Aug-29 18:07 UTC.
Position N 30°50' E 032°19'.
Warning: this ship's position is 45 days out of date.

Length 175.5 m; beam 29.4 m.

Type: Ship. MMSI: 356105000.

Date/timePositionNaut miles runAvg speedWind from/ knotsBaromVisibWave heightAir tempDewpointWater temp
2016-Jul-15 08:17N 30°50' E 032°19'10 8.8
2016-Jul-15 07:10N 30°59' E 032°19'6 9.7
2016-Jul-15 06:31N 31°06' E 032°18'10 3.4
2016-Jul-15 03:28N 31°16' E 032°19'0 0.0
2016-Jul-14 22:13N 31°16' E 032°19'0 0.0
2016-Jul-14 21:10N 31°16' E 032°19'0 0.0
2016-Jul-14 19:25N 31°16' E 032°19'0 0.0
2016-Jul-14 12:23N 31°16' E 032°19'0 0.3
2016-Jul-14 11:32N 31°16' E 032°19'5 5.3
2016-Jul-14 10:33N 31°21' E 032°21'4 0.4
2016-Jul-14 01:08N 31°23' E 032°18'1710.0
2016-Jul-13 23:27N 31°37' E 032°07'1111.8
2016-Jul-13 22:32N 31°44' E 031°58'1412.1
2016-Jul-13 21:25N 31°49' E 031°43'1112.7
2016-Jul-13 20:33N 31°52' E 031°31'1212.4
2016-Jul-13 19:33N 31°56' E 031°17'1612.2
2016-Jul-13 18:13N 31°60' E 030°58'5 7.2
2016-Jul-13 17:30N 32°04' E 030°55'9 7.2
2016-Jul-13 16:18N 32°10' E 030°48'9 9.7
2016-Jul-13 15:20N 32°08' E 030°38'2011.4
2016-Jul-13 13:33N 32°19' E 030°17'1612.4
2016-Jul-13 12:17N 32°20' E 029°59'1012.5
2016-Jul-13 11:30N 32°20' E 029°47'1112.1
2016-Jul-13 10:33N 32°23' E 029°34'1812.4
2016-Jul-13 09:08N 32°29' E 029°14'812.6
2016-Jul-13 08:30N 32°30' E 029°05'2812.4
2016-Jul-13 06:13N 32°40' E 028°34'913.0
2016-Jul-13 05:30N 32°43' E 028°23'60513.1
2016-Jul-11 07:25N 35°47' E 016°46'1213.3
2016-Jul-11 06:33N 35°50' E 016°33'2713.3
2016-Jul-11 04:33N 35°58' E 016°01'1313.1
2016-Jul-11 03:33N 36°02' E 015°46'1413.2
2016-Jul-11 02:30N 36°06' E 015°30'1313.3
2016-Jul-11 01:32N 36°10' E 015°14'1313.2
2016-Jul-11 00:33N 36°14' E 014°59'1313.3
2016-Jul-10 23:33N 36°18' E 014°43'1413.5
2016-Jul-10 22:33N 36°22' E 014°27'1413.6
2016-Jul-10 21:33N 36°27' E 014°11'1313.4
2016-Jul-10 20:33N 36°31' E 013°55'1313.3
2016-Jul-10 19:33N 36°35' E 013°40'1313.3
2016-Jul-10 18:33N 36°39' E 013°24'1413.6
2016-Jul-10 17:33N 36°43' E 013°08'1413.5
2016-Jul-10 16:33N 36°47' E 012°52'1313.3
2016-Jul-10 15:34N 36°51' E 012°36'1313.1
2016-Jul-10 14:33N 36°55' E 012°20'1413.2
2016-Jul-10 13:30N 36°59' E 012°03'1313.2
2016-Jul-10 12:33N 37°05' E 011°49'1313.5
2016-Jul-10 11:33N 37°11' E 011°35'1413.5
2016-Jul-10 10:33N 37°18' E 011°20'1313.0
2016-Jul-10 09:33N 37°24' E 011°06'1313.1
2016-Jul-10 08:32N 37°29' E 010°50'4113.2
2016-Jul-10 05:25N 37°34' E 009°58'1213.7
2016-Jul-10 04:33N 37°31' E 009°44'1413.6
2016-Jul-10 03:33N 37°27' E 009°28'1413.7
2016-Jul-10 02:32N 37°23' E 009°11'28112.8
2016-Jul-09 04:32N 37°05' E 003°19'1312.9
2016-Jul-09 03:33N 37°03' E 003°03'1312.9
2016-Jul-09 02:33N 37°01' E 002°47'1313.4
2016-Jul-09 01:32N 36°58' E 002°31'1313.4
2016-Jul-09 00:33N 36°56' E 002°14'1313.2
2016-Jul-08 23:32N 36°54' E 001°58'1312.9
2016-Jul-08 22:31N 36°52' E 001°42'1212.8
2016-Jul-08 21:33N 36°49' E 001°26'1312.4
2016-Jul-08 20:30N 36°48' E 001°10'1212.5
2016-Jul-08 19:33N 36°46' E 000°56'1312.9
2016-Jul-08 18:33N 36°44' E 000°40'1212.1
2016-Jul-08 17:33N 36°42' E 000°25'1312.2
2016-Jul-08 16:32N 36°40' E 000°09'1212.6
2016-Jul-08 15:33N 36°38' W 000°06'1313.4
2016-Jul-08 14:33N 36°36' W 000°22'1512.8
2016-Jul-08 13:23N 36°34' W 000°41'22412.6
2016-Jul-07 19:33N 36°05' W 005°16'5 5.0
2016-Jul-07 18:32N 36°08' W 005°22'0 0.0
2016-Jul-07 17:29N 36°08' W 005°22'0 0.0
2016-Jul-07 16:32N 36°08' W 005°22'0 0.1
2016-Jul-07 15:32N 36°07' W 005°22'0 0.2
2016-Jul-07 14:32N 36°08' W 005°22'0 0.0
2016-Jul-07 13:29N 36°08' W 005°22'0 0.0
2016-Jul-07 12:32N 36°08' W 005°22'0 0.0
2016-Jul-07 11:32N 36°08' W 005°22'0 0.0
2016-Jul-07 10:32N 36°08' W 005°22'0 0.2
2016-Jul-07 09:32N 36°08' W 005°22'1 1.0
2016-Jul-07 08:33N 36°07' W 005°22'7 6.7
2016-Jul-07 07:33N 36°00' W 005°20'1010.2
2016-Jul-07 06:34N 35°57' W 005°32'1413.7
2016-Jul-07 05:32N 35°54' W 005°49'23211.1
2016-Jul-06 08:32N 37°60' W 009°54'1312.8
2016-Jul-06 07:33N 38°12' W 009°58'1312.9
2016-Jul-06 06:31N 38°25' W 010°01'1212.5
2016-Jul-06 05:33N 38°37' W 010°06'1312.8
2016-Jul-06 04:31N 38°50' W 010°06'2912.5
2016-Jul-06 02:09N 39°19' W 010°06'1012.9
2016-Jul-06 01:21N 39°30' W 010°06'  

Dump ship's entire track history